sensor_id;sensor_type;location;lat;lon;timestamp;pressure;altitude;pressure_sealevel;temperature;humidity
4858;BME280;58975;51.978;8.472;2022-11-15T00:01:09;99768.47;;;8.58;100.00
4858;BME280;58975;51.978;8.472;2022-11-15T00:06:06;99768.31;;;8.59;100.00
4858;BME280;58975;51.978;8.472;2022-11-15T00:11:03;99771.56;;;8.63;100.00
4858;BME280;58975;51.978;8.472;2022-11-15T00:16:01;99762.63;;;8.64;100.00
4858;BME280;58975;51.978;8.472;2022-11-15T00:21:03;99761.78;;;8.63;100.00
4858;BME280;58975;51.978;8.472;2022-11-15T00:26:01;99763.09;;;8.69;100.00
4858;BME280;58975;51.978;8.472;2022-11-15T00:31:06;99757.06;;;8.67;100.00
4858;BME280;58975;51.978;8.472;2022-11-15T00:36:07;99751.19;;;8.84;100.00
4858;BME280;58975;51.978;8.472;2022-11-15T00:41:06;99754.97;;;8.81;100.00
4858;BME280;58975;51.978;8.472;2022-11-15T00:46:05;99745.31;;;8.80;100.00
4858;BME280;58975;51.978;8.472;2022-11-15T00:51:02;99741.75;;;8.91;100.00
4858;BME280;58975;51.978;8.472;2022-11-15T00:55:58;99731.97;;;8.91;100.00
4858;BME280;58975;51.978;8.472;2022-11-15T01:00:54;99737.16;;;8.93;100.00
4858;BME280;58975;51.978;8.472;2022-11-15T01:05:51;99725.91;;;9.00;100.00
4858;BME280;58975;51.978;8.472;2022-11-15T01:10:47;99722.97;;;9.03;100.00
4858;BME280;58975;51.978;8.472;2022-11-15T01:15:44;99721.03;;;9.06;100.00
4858;BME280;58975;51.978;8.472;2022-11-15T01:20:41;99702.38;;;9.17;100.00
4858;BME280;58975;51.978;8.472;2022-11-15T01:25:38;99697.44;;;9.12;100.00
4858;BME280;58975;51.978;8.472;2022-11-15T01:30:35;99697.75;;;9.19;100.00
4858;BME280;58975;51.978;8.472;2022-11-15T01:35:32;99689.78;;;9.19;100.00
4858;BME280;58975;51.978;8.472;2022-11-15T01:40:28;99673.34;;;9.25;100.00
4858;BME280;58975;51.978;8.472;2022-11-15T01:45:25;99677.66;;;9.26;100.00
4858;BME280;58975;51.978;8.472;2022-11-15T01:50:26;99666.78;;;9.29;100.00
4858;BME280;58975;51.978;8.472;2022-11-15T01:55:27;99673.06;;;9.28;100.00
4858;BME280;58975;51.978;8.472;2022-11-15T02:00:24;99669.38;;;9.19;100.00
4858;BME280;58975;51.978;8.472;2022-11-15T02:05:20;99663.22;;;9.19;100.00
4858;BME280;58975;51.978;8.472;2022-11-15T02:10:19;99660.72;;;9.17;100.00
4858;BME280;58975;51.978;8.472;2022-11-15T02:15:17;99657.50;;;9.23;100.00
4858;BME280;58975;51.978;8.472;2022-11-15T02:20:28;99660.34;;;9.31;100.00
4858;BME280;58975;51.978;8.472;2022-11-15T02:25:41;99649.13;;;9.58;100.00
4858;BME280;58975;51.978;8.472;2022-11-15T02:30:58;99641.69;;;9.52;100.00
4858;BME280;58975;51.978;8.472;2022-11-15T02:36:05;99636.84;;;9.76;100.00
4858;BME280;58975;51.978;8.472;2022-11-15T02:41:07;99637.16;;;9.92;100.00
4858;BME280;58975;51.978;8.472;2022-11-15T02:46:15;99628.50;;;9.90;100.00
4858;BME280;58975;51.978;8.472;2022-11-15T02:51:14;99633.81;;;10.10;100.00
4858;BME280;58975;51.978;8.472;2022-11-15T02:56:11;99632.75;;;10.22;100.00
4858;BME280;58975;51.978;8.472;2022-11-15T03:01:35;99619.16;;;10.25;100.00
4858;BME280;58975;51.978;8.472;2022-11-15T03:06:55;99623.22;;;10.29;100.00
4858;BME280;58975;51.978;8.472;2022-11-15T03:12:01;99623.63;;;10.24;100.00
4858;BME280;58975;51.978;8.472;2022-11-15T03:22:16;99619.44;;;10.41;100.00
4858;BME280;58975;51.978;8.472;2022-11-15T03:27:17;99623.94;;;10.31;100.00
4858;BME280;58975;51.978;8.472;2022-11-15T03:32:23;99624.34;;;10.36;100.00
4858;BME280;58975;51.978;8.472;2022-11-15T03:37:25;99625.88;;;10.29;100.00
4858;BME280;58975;51.978;8.472;2022-11-15T03:42:29;99620.28;;;10.41;100.00
4858;BME280;58975;51.978;8.472;2022-11-15T03:47:32;99626.03;;;10.47;100.00
4858;BME280;58975;51.978;8.472;2022-11-15T03:52:33;99630.94;;;10.41;100.00
4858;BME280;58975;51.978;8.472;2022-11-15T03:57:30;99625.44;;;10.43;100.00
4858;BME280;58975;51.978;8.472;2022-11-15T04:02:26;99630.66;;;10.35;100.00
4858;BME280;58975;51.978;8.472;2022-11-15T04:07:22;99624.75;;;10.31;100.00
4858;BME280;58975;51.978;8.472;2022-11-15T04:12:19;99623.78;;;10.32;100.00
4858;BME280;58975;51.978;8.472;2022-11-15T04:17:26;99616.63;;;10.33;100.00
4858;BME280;58975;51.978;8.472;2022-11-15T04:22:23;99630.50;;;10.27;100.00
4858;BME280;58975;51.978;8.472;2022-11-15T04:27:38;99619.28;;;10.33;100.00
4858;BME280;58975;51.978;8.472;2022-11-15T04:32:34;99618.31;;;10.34;100.00
4858;BME280;58975;51.978;8.472;2022-11-15T04:37:30;99615.34;;;10.27;100.00
4858;BME280;58975;51.978;8.472;2022-11-15T04:42:27;99637.09;;;10.23;100.00
4858;BME280;58975;51.978;8.472;2022-11-15T04:47:23;99619.84;;;10.17;100.00
4858;BME280;58975;51.978;8.472;2022-11-15T04:52:19;99625.31;;;10.16;100.00
4858;BME280;58975;51.978;8.472;2022-11-15T04:57:16;99621.94;;;10.14;100.00
4858;BME280;58975;51.978;8.472;2022-11-15T05:02:12;99618.56;;;10.12;100.00
4858;BME280;58975;51.978;8.472;2022-11-15T05:07:08;99620.66;;;10.08;100.00
4858;BME280;58975;51.978;8.472;2022-11-15T05:12:05;99617.59;;;10.03;100.00
4858;BME280;58975;51.978;8.472;2022-11-15T05:17:01;99619.13;;;10.06;100.00
4858;BME280;58975;51.978;8.472;2022-11-15T05:21:58;99624.88;;;10.11;100.00
4858;BME280;58975;51.978;8.472;2022-11-15T05:26:55;99614.34;;;10.09;100.00
4858;BME280;58975;51.978;8.472;2022-11-15T05:31:51;99616.75;;;10.03;100.00
4858;BME280;58975;51.978;8.472;2022-11-15T05:36:48;99615.91;;;10.02;100.00
4858;BME280;58975;51.978;8.472;2022-11-15T05:41:52;99609.75;;;10.02;100.00
4858;BME280;58975;51.978;8.472;2022-11-15T05:46:51;99609.44;;;10.05;100.00
4858;BME280;58975;51.978;8.472;2022-11-15T05:51:50;99617.03;;;10.00;100.00
4858;BME280;58975;51.978;8.472;2022-11-15T05:56:48;99608.88;;;10.01;100.00
4858;BME280;58975;51.978;8.472;2022-11-15T06:01:45;99606.09;;;10.03;100.00
4858;BME280;58975;51.978;8.472;2022-11-15T06:06:42;99606.78;;;10.05;100.00
4858;BME280;58975;51.978;8.472;2022-11-15T06:11:38;99603.03;;;10.07;100.00
4858;BME280;58975;51.978;8.472;2022-11-15T06:16:34;99603.59;;;10.11;100.00
4858;BME280;58975;51.978;8.472;2022-11-15T06:21:31;99596.03;;;10.16;100.00
4858;BME280;58975;51.978;8.472;2022-11-15T06:26:27;99597.56;;;10.28;100.00
4858;BME280;58975;51.978;8.472;2022-11-15T06:31:24;99606.41;;;10.38;100.00
4858;BME280;58975;51.978;8.472;2022-11-15T06:36:21;99612.28;;;10.41;100.00
4858;BME280;58975;51.978;8.472;2022-11-15T06:41:17;99615.50;;;10.45;100.00
4858;BME280;58975;51.978;8.472;2022-11-15T06:46:14;99620.97;;;10.53;100.00
4858;BME280;58975;51.978;8.472;2022-11-15T06:51:10;99616.44;;;10.63;100.00
4858;BME280;58975;51.978;8.472;2022-11-15T06:56:07;99627.66;;;10.67;100.00
4858;BME280;58975;51.978;8.472;2022-11-15T07:01:06;99630.31;;;10.76;100.00
4858;BME280;58975;51.978;8.472;2022-11-15T07:06:03;99630.44;;;10.84;100.00
4858;BME280;58975;51.978;8.472;2022-11-15T07:11:05;99636.88;;;10.91;100.00
4858;BME280;58975;51.978;8.472;2022-11-15T07:16:07;99636.56;;;10.95;100.00
4858;BME280;58975;51.978;8.472;2022-11-15T07:21:05;99651.09;;;11.10;100.00
4858;BME280;58975;51.978;8.472;2022-11-15T07:26:02;99654.91;;;11.17;100.00
4858;BME280;58975;51.978;8.472;2022-11-15T07:31:02;99654.19;;;11.15;100.00
4858;BME280;58975;51.978;8.472;2022-11-15T07:36:04;99654.19;;;11.15;100.00
4858;BME280;58975;51.978;8.472;2022-11-15T07:41:04;99659.78;;;11.21;100.00
4858;BME280;58975;51.978;8.472;2022-11-15T07:46:08;99664.00;;;11.24;100.00
4858;BME280;58975;51.978;8.472;2022-11-15T07:51:11;99664.84;;;11.24;100.00
4858;BME280;58975;51.978;8.472;2022-11-15T07:56:10;99658.34;;;11.27;100.00
4858;BME280;58975;51.978;8.472;2022-11-15T08:01:08;99668.94;;;11.46;100.00
4858;BME280;58975;51.978;8.472;2022-11-15T08:06:05;99660.06;;;11.55;100.00
4858;BME280;58975;51.978;8.472;2022-11-15T08:11:02;99656.78;;;11.71;100.00
4858;BME280;58975;51.978;8.472;2022-11-15T08:15:59;99647.09;;;11.97;100.00
4858;BME280;58975;51.978;8.472;2022-11-15T08:21:01;99657.97;;;12.04;100.00
4858;BME280;58975;51.978;8.472;2022-11-15T08:26:02;99653.97;;;12.17;100.00
4858;BME280;58975;51.978;8.472;2022-11-15T08:30:59;99656.03;;;12.41;100.00
4858;BME280;58975;51.978;8.472;2022-11-15T08:35:56;99658.16;;;12.55;100.00
4858;BME280;58975;51.978;8.472;2022-11-15T08:41:00;99646.41;;;12.48;100.00
4858;BME280;58975;51.978;8.472;2022-11-15T08:45:58;99648.53;;;12.62;100.00
4858;BME280;58975;51.978;8.472;2022-11-15T08:50:56;99658.28;;;12.71;100.00
4858;BME280;58975;51.978;8.472;2022-11-15T08:55:52;99656.75;;;12.87;100.00
4858;BME280;58975;51.978;8.472;2022-11-15T09:00:48;99660.66;;;13.18;100.00
4858;BME280;58975;51.978;8.472;2022-11-15T09:05:45;99663.38;;;13.26;100.00
4858;BME280;58975;51.978;8.472;2022-11-15T09:10:41;99662.47;;;13.43;100.00
4858;BME280;58975;51.978;8.472;2022-11-15T09:15:38;99659.16;;;13.49;100.00
4858;BME280;58975;51.978;8.472;2022-11-15T09:20:34;99654.19;;;13.54;100.00
4858;BME280;58975;51.978;8.472;2022-11-15T09:25:31;99656.84;;;13.54;100.00
4858;BME280;58975;51.978;8.472;2022-11-15T09:30:27;99662.56;;;13.59;100.00
4858;BME280;58975;51.978;8.472;2022-11-15T09:35:24;99663.94;;;13.63;100.00
4858;BME280;58975;51.978;8.472;2022-11-15T09:40:20;99665.94;;;13.69;100.00
4858;BME280;58975;51.978;8.472;2022-11-15T09:45:20;99654.63;;;13.76;100.00
4858;BME280;58975;51.978;8.472;2022-11-15T09:50:31;99659.28;;;13.73;100.00
4858;BME280;58975;51.978;8.472;2022-11-15T09:55:46;99666.69;;;13.96;100.00
4858;BME280;58975;51.978;8.472;2022-11-15T10:00:48;99671.09;;;14.05;100.00
4858;BME280;58975;51.978;8.472;2022-11-15T10:05:50;99660.03;;;14.08;100.00
4858;BME280;58975;51.978;8.472;2022-11-15T10:10:50;99659.75;;;14.11;100.00
4858;BME280;58975;51.978;8.472;2022-11-15T10:26:37;99627.91;;;14.08;100.00
4858;BME280;58975;51.978;8.472;2022-11-15T10:31:33;99622.91;;;14.13;100.00
4858;BME280;58975;51.978;8.472;2022-11-15T10:36:30;99612.34;;;14.11;100.00
4858;BME280;58975;51.978;8.472;2022-11-15T10:46:23;99609.88;;;14.18;100.00
4858;BME280;58975;51.978;8.472;2022-11-15T10:51:47;99603.53;;;14.19;100.00
4858;BME280;58975;51.978;8.472;2022-11-15T10:56:49;99584.75;;;13.95;100.00
4858;BME280;58975;51.978;8.472;2022-11-15T11:01:47;99575.69;;;14.04;100.00
4858;BME280;58975;51.978;8.472;2022-11-15T11:06:59;99577.41;;;14.21;100.00
4858;BME280;58975;51.978;8.472;2022-11-15T11:11:56;99585.59;;;13.95;100.00
4858;BME280;58975;51.978;8.472;2022-11-15T11:16:55;99580.28;;;14.36;100.00
4858;BME280;58975;51.978;8.472;2022-11-15T11:27:18;99568.53;;;14.20;100.00
4858;BME280;58975;51.978;8.472;2022-11-15T11:43:13;99519.50;;;14.36;100.00
4858;BME280;58975;51.978;8.472;2022-11-15T11:48:23;99519.47;;;14.68;100.00
4858;BME280;58975;51.978;8.472;2022-11-15T11:53:29;99523.84;;;14.61;100.00
4858;BME280;58975;51.978;8.472;2022-11-15T11:58:34;99521.66;;;14.65;100.00
4858;BME280;58975;51.978;8.472;2022-11-15T12:03:43;99507.78;;;14.45;100.00
4858;BME280;58975;51.978;8.472;2022-11-15T12:09:06;99500.59;;;14.46;100.00
4858;BME280;58975;51.978;8.472;2022-11-15T12:14:16;99496.38;;;14.51;100.00
4858;BME280;58975;51.978;8.472;2022-11-15T12:19:18;99487.28;;;14.77;100.00
4858;BME280;58975;51.978;8.472;2022-11-15T12:24:22;99493.16;;;14.80;100.00
4858;BME280;58975;51.978;8.472;2022-11-15T12:29:40;99492.38;;;14.47;100.00
4858;BME280;58975;51.978;8.472;2022-11-15T12:34:41;99481.00;;;14.53;100.00
4858;BME280;58975;51.978;8.472;2022-11-15T12:40:15;99479.78;;;14.64;100.00
4858;BME280;58975;51.978;8.472;2022-11-15T12:45:32;99473.56;;;14.72;100.00
4858;BME280;58975;51.978;8.472;2022-11-15T13:06:54;99450.53;;;14.30;100.00
4858;BME280;58975;51.978;8.472;2022-11-15T13:11:52;99446.50;;;14.34;100.00
4858;BME280;58975;51.978;8.472;2022-11-15T13:16:58;99445.50;;;14.43;100.00
4858;BME280;58975;51.978;8.472;2022-11-15T13:21:55;99431.63;;;14.40;100.00
4858;BME280;58975;51.978;8.472;2022-11-15T13:27:15;99423.09;;;14.36;100.00
4858;BME280;58975;51.978;8.472;2022-11-15T13:32:15;99418.66;;;14.59;100.00
4858;BME280;58975;51.978;8.472;2022-11-15T13:37:28;99417.00;;;14.58;100.00
4858;BME280;58975;51.978;8.472;2022-11-15T13:42:28;99421.41;;;14.43;100.00
4858;BME280;58975;51.978;8.472;2022-11-15T13:47:26;99411.53;;;14.36;100.00
4858;BME280;58975;51.978;8.472;2022-11-15T13:52:28;99408.53;;;14.31;100.00
4858;BME280;58975;51.978;8.472;2022-11-15T13:57:31;99413.56;;;14.26;100.00
4858;BME280;58975;51.978;8.472;2022-11-15T14:02:35;99410.03;;;14.25;100.00
4858;BME280;58975;51.978;8.472;2022-11-15T14:07:32;99407.50;;;14.23;100.00
4858;BME280;58975;51.978;8.472;2022-11-15T14:12:50;99399.97;;;14.35;100.00
4858;BME280;58975;51.978;8.472;2022-11-15T14:17:46;99394.63;;;14.27;100.00
4858;BME280;58975;51.978;8.472;2022-11-15T14:22:56;99399.50;;;14.07;100.00
4858;BME280;58975;51.978;8.472;2022-11-15T14:33:29;99378.13;;;13.99;100.00
4858;BME280;58975;51.978;8.472;2022-11-15T14:38:26;99367.09;;;13.86;100.00
4858;BME280;58975;51.978;8.472;2022-11-15T14:43:22;99378.66;;;13.87;100.00
4858;BME280;58975;51.978;8.472;2022-11-15T14:48:19;99364.59;;;13.68;100.00
4858;BME280;58975;51.978;8.472;2022-11-15T14:53:17;99361.25;;;13.34;100.00
4858;BME280;58975;51.978;8.472;2022-11-15T14:58:13;99351.88;;;13.14;100.00
4858;BME280;58975;51.978;8.472;2022-11-15T15:03:10;99347.28;;;12.90;100.00
4858;BME280;58975;51.978;8.472;2022-11-15T15:08:08;99329.56;;;12.73;100.00
4858;BME280;58975;51.978;8.472;2022-11-15T15:13:05;99339.75;;;12.69;100.00
4858;BME280;58975;51.978;8.472;2022-11-15T15:18:03;99333.06;;;12.73;100.00
4858;BME280;58975;51.978;8.472;2022-11-15T15:23:00;99331.91;;;12.84;100.00
4858;BME280;58975;51.978;8.472;2022-11-15T15:27:57;99329.06;;;12.69;100.00
4858;BME280;58975;51.978;8.472;2022-11-15T15:32:54;99323.84;;;12.60;100.00
4858;BME280;58975;51.978;8.472;2022-11-15T15:37:50;99318.50;;;12.60;100.00
4858;BME280;58975;51.978;8.472;2022-11-15T15:42:48;99320.97;;;12.45;100.00
4858;BME280;58975;51.978;8.472;2022-11-15T15:47:45;99307.91;;;12.34;100.00
4858;BME280;58975;51.978;8.472;2022-11-15T15:52:42;99300.88;;;12.33;100.00
4858;BME280;58975;51.978;8.472;2022-11-15T15:57:38;99290.66;;;12.20;100.00
4858;BME280;58975;51.978;8.472;2022-11-15T16:02:34;99282.41;;;12.06;100.00
4858;BME280;58975;51.978;8.472;2022-11-15T16:07:36;99284.41;;;12.04;100.00
4858;BME280;58975;51.978;8.472;2022-11-15T16:12:34;99268.88;;;11.99;100.00
4858;BME280;58975;51.978;8.472;2022-11-15T16:17:33;99266.84;;;11.93;100.00
4858;BME280;58975;51.978;8.472;2022-11-15T16:22:31;99257.47;;;11.89;100.00
4858;BME280;58975;51.978;8.472;2022-11-15T16:27:27;99251.91;;;11.74;100.00
4858;BME280;58975;51.978;8.472;2022-11-15T16:32:24;99240.13;;;11.59;100.00
4858;BME280;58975;51.978;8.472;2022-11-15T16:37:24;99244.19;;;11.46;100.00
4858;BME280;58975;51.978;8.472;2022-11-15T16:42:20;99237.00;;;11.38;100.00
4858;BME280;58975;51.978;8.472;2022-11-15T16:47:17;99225.81;;;11.34;100.00
4858;BME280;58975;51.978;8.472;2022-11-15T16:52:18;99229.63;;;11.32;100.00
4858;BME280;58975;51.978;8.472;2022-11-15T16:57:16;99242.06;;;11.23;100.00
4858;BME280;58975;51.978;8.472;2022-11-15T17:02:13;99232.31;;;11.14;100.00
4858;BME280;58975;51.978;8.472;2022-11-15T17:07:10;99216.00;;;11.09;100.00
4858;BME280;58975;51.978;8.472;2022-11-15T17:12:07;99216.19;;;11.16;100.00
4858;BME280;58975;51.978;8.472;2022-11-15T17:17:04;99208.09;;;11.25;100.00
4858;BME280;58975;51.978;8.472;2022-11-15T17:22:03;99209.66;;;11.36;100.00
4858;BME280;58975;51.978;8.472;2022-11-15T17:27:00;99201.81;;;11.34;100.00
4858;BME280;58975;51.978;8.472;2022-11-15T17:31:56;99193.22;;;11.41;100.00
4858;BME280;58975;51.978;8.472;2022-11-15T17:36:53;99188.53;;;11.43;100.00
4858;BME280;58975;51.978;8.472;2022-11-15T17:41:50;99186.59;;;11.53;100.00
4858;BME280;58975;51.978;8.472;2022-11-15T17:46:46;99188.97;;;11.56;100.00
4858;BME280;58975;51.978;8.472;2022-11-15T17:51:43;99175.13;;;11.52;100.00
4858;BME280;58975;51.978;8.472;2022-11-15T17:56:45;99180.13;;;11.55;100.00
4858;BME280;58975;51.978;8.472;2022-11-15T18:01:41;99169.28;;;11.57;100.00
4858;BME280;58975;51.978;8.472;2022-11-15T18:06:38;99171.19;;;11.64;100.00
4858;BME280;58975;51.978;8.472;2022-11-15T18:11:37;99166.41;;;11.76;100.00
4858;BME280;58975;51.978;8.472;2022-11-15T18:16:36;99172.94;;;11.81;100.00
4858;BME280;58975;51.978;8.472;2022-11-15T18:21:32;99171.91;;;11.74;100.00
4858;BME280;58975;51.978;8.472;2022-11-15T18:26:29;99172.94;;;11.81;100.00
4858;BME280;58975;51.978;8.472;2022-11-15T18:31:27;99163.75;;;11.76;100.00
4858;BME280;58975;51.978;8.472;2022-11-15T18:36:25;99150.56;;;11.74;100.00
4858;BME280;58975;51.978;8.472;2022-11-15T18:41:23;99146.59;;;11.78;100.00
4858;BME280;58975;51.978;8.472;2022-11-15T18:46:25;99144.78;;;11.87;100.00
4858;BME280;58975;51.978;8.472;2022-11-15T18:51:23;99139.75;;;11.84;100.00
4858;BME280;58975;51.978;8.472;2022-11-15T18:56:21;99132.94;;;11.90;100.00
4858;BME280;58975;51.978;8.472;2022-11-15T19:01:20;99136.47;;;11.98;100.00
4858;BME280;58975;51.978;8.472;2022-11-15T19:06:25;99129.47;;;11.97;100.00
4858;BME280;58975;51.978;8.472;2022-11-15T19:11:30;99120.66;;;12.13;100.00
4858;BME280;58975;51.978;8.472;2022-11-15T19:16:26;99123.00;;;12.16;100.00
4858;BME280;58975;51.978;8.472;2022-11-15T19:21:24;99115.50;;;12.11;100.00
4858;BME280;58975;51.978;8.472;2022-11-15T19:26:21;99122.50;;;12.28;100.00
4858;BME280;58975;51.978;8.472;2022-11-15T19:31:22;99117.66;;;12.16;100.00
4858;BME280;58975;51.978;8.472;2022-11-15T19:36:24;99118.66;;;12.07;100.00
4858;BME280;58975;51.978;8.472;2022-11-15T19:41:25;99120.16;;;12.17;100.00
4858;BME280;58975;51.978;8.472;2022-11-15T19:46:22;99113.34;;;12.23;100.00
4858;BME280;58975;51.978;8.472;2022-11-15T19:51:20;99103.78;;;12.04;100.00
4858;BME280;58975;51.978;8.472;2022-11-15T19:56:18;99100.44;;;11.94;100.00
4858;BME280;58975;51.978;8.472;2022-11-15T20:01:17;99103.47;;;11.99;100.00
4858;BME280;58975;51.978;8.472;2022-11-15T20:06:18;99093.63;;;11.92;100.00
4858;BME280;58975;51.978;8.472;2022-11-15T20:11:16;99082.56;;;11.78;100.00
4858;BME280;58975;51.978;8.472;2022-11-15T20:16:19;99082.72;;;11.77;100.00
4858;BME280;58975;51.978;8.472;2022-11-15T20:21:16;99074.84;;;11.67;100.00
4858;BME280;58975;51.978;8.472;2022-11-15T20:26:13;99073.97;;;11.59;100.00
4858;BME280;58975;51.978;8.472;2022-11-15T20:31:11;99075.81;;;11.58;100.00
4858;BME280;58975;51.978;8.472;2022-11-15T20:36:13;99072.97;;;11.52;100.00
4858;BME280;58975;51.978;8.472;2022-11-15T20:41:11;99066.13;;;11.57;100.00
4858;BME280;58975;51.978;8.472;2022-11-15T20:46:09;99061.81;;;11.56;100.00
4858;BME280;58975;51.978;8.472;2022-11-15T20:51:08;99059.44;;;11.53;100.00
4858;BME280;58975;51.978;8.472;2022-11-15T20:56:09;99053.47;;;11.51;100.00
4858;BME280;58975;51.978;8.472;2022-11-15T21:01:06;99053.47;;;11.51;100.00
4858;BME280;58975;51.978;8.472;2022-11-15T21:06:03;99048.75;;;11.45;100.00
4858;BME280;58975;51.978;8.472;2022-11-15T21:11:00;99044.44;;;11.44;100.00
4858;BME280;58975;51.978;8.472;2022-11-15T21:16:15;99036.59;;;11.43;100.00
4858;BME280;58975;51.978;8.472;2022-11-15T21:21:12;99037.06;;;11.38;100.00
4858;BME280;58975;51.978;8.472;2022-11-15T21:26:10;99030.75;;;11.39;100.00
4858;BME280;58975;51.978;8.472;2022-11-15T21:31:07;99030.06;;;11.37;100.00
4858;BME280;58975;51.978;8.472;2022-11-15T21:36:04;99024.75;;;11.37;100.00
4858;BME280;58975;51.978;8.472;2022-11-15T21:41:03;99033.75;;;11.36;100.00
4858;BME280;58975;51.978;8.472;2022-11-15T21:46:03;99033.75;;;11.36;100.00
4858;BME280;58975;51.978;8.472;2022-11-15T21:51:05;99022.75;;;11.39;100.00
4858;BME280;58975;51.978;8.472;2022-11-15T21:56:02;99016.09;;;11.35;100.00
4858;BME280;58975;51.978;8.472;2022-11-15T22:00:58;99009.78;;;11.36;100.00
4858;BME280;58975;51.978;8.472;2022-11-15T22:06:13;99001.25;;;11.32;100.00
4858;BME280;58975;51.978;8.472;2022-11-15T22:11:13;99006.91;;;11.29;100.00
4858;BME280;58975;51.978;8.472;2022-11-15T22:16:10;99000.03;;;11.19;100.00
4858;BME280;58975;51.978;8.472;2022-11-15T22:21:11;98993.88;;;11.18;100.00
4858;BME280;58975;51.978;8.472;2022-11-15T22:26:18;98980.69;;;11.09;100.00
4858;BME280;58975;51.978;8.472;2022-11-15T22:31:19;98986.50;;;11.04;100.00
4858;BME280;58975;51.978;8.472;2022-11-15T22:36:15;98971.47;;;10.95;100.00
4858;BME280;58975;51.978;8.472;2022-11-15T22:41:12;98966.81;;;10.89;100.00
4858;BME280;58975;51.978;8.472;2022-11-15T22:46:09;98967.78;;;10.88;100.00
4858;BME280;58975;51.978;8.472;2022-11-15T22:51:06;98967.09;;;10.86;100.00
4858;BME280;58975;51.978;8.472;2022-11-15T22:56:05;98976.22;;;10.75;100.00
4858;BME280;58975;51.978;8.472;2022-11-15T23:01:03;98964.69;;;10.67;100.00
4858;BME280;58975;51.978;8.472;2022-11-15T23:06:04;98962.66;;;10.61;100.00
4858;BME280;58975;51.978;8.472;2022-11-15T23:11:02;98949.31;;;10.53;100.00
4858;BME280;58975;51.978;8.472;2022-11-15T23:16:19;98939.09;;;10.40;100.00
4858;BME280;58975;51.978;8.472;2022-11-15T23:21:35;98923.41;;;10.29;100.00
4858;BME280;58975;51.978;8.472;2022-11-15T23:26:56;98921.00;;;10.18;100.00
4858;BME280;58975;51.978;8.472;2022-11-15T23:31:54;98919.59;;;10.14;100.00
4858;BME280;58975;51.978;8.472;2022-11-15T23:37:11;98914.25;;;10.06;100.00
4858;BME280;58975;51.978;8.472;2022-11-15T23:42:08;98913.84;;;10.01;100.00
4858;BME280;58975;51.978;8.472;2022-11-15T23:47:18;98926.50;;;9.98;100.00
4858;BME280;58975;51.978;8.472;2022-11-15T23:52:15;98919.28;;;9.91;100.00
4858;BME280;58975;51.978;8.472;2022-11-15T23:57:12;98912.75;;;9.85;100.00
